KVNY/VNY METAR and TAF weather

Enter ICAO airport designator
Station Type Date Time Source
KVNY METAR 2022/05/26 04:51 UTC NOAA

KVNY 260451Z 11005KT 10SM CLR 18/13 A2990 RMK AO2 SLP118 T01780133


Station Type Date Time Source
KVNY Decoded METAR 2022/05/26 04:51 UTC NOAA

VAN NUYS AIRPORT, CA, United States (KVNY) 34-13N 118-29W 245M
May 26, 2022 - 12:51 AM EDT / 2022.05.26 0451 UTC
Wind: from the ESE (110 degrees) at 6 MPH (5 KT):0
Visibility: 10 mile(s):0
Sky conditions: clear
Temperature: 64.0 F (17.8 C)
Dew Point: 55.9 F (13.3 C)
Relative Humidity: 74%
Pressure (altimeter): 29.9 in. Hg (1012 hPa)
ob: KVNY 260451Z 11005KT 10SM CLR 18/13 A2990 RMK AO2 SLP118 T01780133
cycle: 5

Station Type Date Time Source
KVNY TAF 2022/05/25 18:22 UTC NOAA

TAF KVNY 251720Z 2518/2618 14005KT 6SM HZ SKC
FM260200 12003KT P6SM SKC
FM260900 VRB03KT 5SM BR BKN008
FM261200 VRB03KT 3SM BR BKN003 OVC008
FM261500 12005KT 5SM HZ BKN008

Example: see airport list